Time;durP1;ratioP1;P1;durP2;ratioP2;P2;SDS_P1;SDS_P2;PMS_P1;PMS_P2;Temp;Humidity;BMP_temperature;BMP_pressure;BME280_temperature;BME280_humidity;BME280_pressure;Samples;Min_cycle;Max_cycle;Signal;HPM_P1;HPM_P2
2022/03/07 00:02:11;;;;;;;1.63;1.10;;;9.60;48.10;;;;;;5043644;28;20513;-86
2022/03/07 00:04:38;;;;;;;1.30;0.77;;;9.60;48.20;;;;;;5066040;28;20117;-83
2022/03/07 00:07:04;;;;;;;1.42;1.02;;;9.60;48.20;;;;;;5111095;27;20048;-85
2022/03/07 00:09:30;;;;;;;2.88;0.90;;;9.60;48.20;;;;;;5092511;28;20028;-86
2022/03/07 00:11:56;;;;;;;1.52;0.77;;;9.60;48.10;;;;;;5076945;28;20085;-85
2022/03/07 00:14:22;;;;;;;1.30;0.90;;;9.60;48.10;;;;;;5076691;28;20032;-84
2022/03/07 00:16:48;;;;;;;2.38;1.05;;;9.60;48.20;;;;;;5076558;28;20044;-83
2022/03/07 00:19:14;;;;;;;1.90;0.73;;;9.70;48.30;;;;;;5059576;28;20133;-85
2022/03/07 00:21:40;;;;;;;0.73;0.73;;;9.70;48.40;;;;;;5076806;27;20518;-84
2022/03/07 00:24:08;;;;;;;2.22;0.80;;;9.60;48.30;;;;;;5078594;28;20040;-84
2022/03/07 00:26:35;;;;;;;1.52;0.90;;;9.60;48.20;;;;;;5077148;28;20042;-84
2022/03/07 00:29:01;;;;;;;1.92;1.02;;;9.60;48.20;;;;;;5048392;28;20033;-83
2022/03/07 00:31:28;;;;;;;2.70;0.60;;;9.60;48.10;;;;;;5093016;28;20039;-84
2022/03/07 00:33:53;;;;;;;1.98;0.73;;;9.60;48.20;;;;;;5075351;28;20387;-84
2022/03/07 00:36:21;;;;;;;1.40;0.80;;;9.60;48.20;;;;;;5109042;27;20039;-85
2022/03/07 00:38:47;;;;;;;0.80;0.68;;;9.60;48.20;;;;;;5091814;28;20052;-84
2022/03/07 00:41:15;;;;;;;2.47;1.00;;;9.60;48.20;;;;;;5059264;28;20503;-85
2022/03/07 00:43:41;;;;;;;2.08;0.98;;;9.60;48.20;;;;;;5046090;28;20040;-86
2022/03/07 00:46:08;;;;;;;1.50;1.05;;;9.60;48.10;;;;;;5060129;28;20115;-85
2022/03/07 00:48:34;;;;;;;0.95;0.85;;;9.60;48.10;;;;;;5064786;28;20036;-84
2022/03/07 00:51:00;;;;;;;1.83;1.20;;;9.60;48.00;;;;;;5062079;28;20020;-84
2022/03/07 00:53:27;;;;;;;1.50;1.00;;;9.60;48.00;;;;;;5079876;28;20029;-85
2022/03/07 00:55:55;;;;;;;1.10;1.00;;;9.60;47.80;;;;;;5042807;28;20040;-84
2022/03/07 00:58:22;;;;;;;1.65;1.00;;;9.60;47.80;;;;;;5038355;28;20029;-86
2022/03/07 01:00:50;;;;;;;1.33;0.80;;;9.60;47.70;;;;;;5033524;28;20681;-86
2022/03/07 01:03:17;;;;;;;3.10;1.20;;;9.60;47.60;;;;;;5076234;28;21358;-84
2022/03/07 01:05:44;;;;;;;1.33;0.80;;;9.60;48.20;;;;;;5058564;28;20623;-85
2022/03/07 01:08:10;;;;;;;1.80;1.10;;;9.60;47.60;;;;;;5089518;28;20025;-85
2022/03/07 01:10:37;;;;;;;1.90;1.10;;;9.60;47.60;;;;;;5077247;28;20037;-85
2022/03/07 01:13:04;;;;;;;1.98;1.33;;;9.60;47.60;;;;;;5076190;28;20379;-85
2022/03/07 01:15:30;;;;;;;1.27;0.80;;;9.60;47.50;;;;;;5077654;27;20032;-85
2022/03/07 01:17:59;;;;;;;3.88;1.05;;;9.60;47.50;;;;;;5107865;27;20031;-85
2022/03/07 01:20:26;;;;;;;3.40;1.25;;;9.60;47.50;;;;;;5108701;27;20032;-87
2022/03/07 01:22:52;;;;;;;2.20;0.80;;;9.60;48.20;;;;;;5075499;28;20963;-85
2022/03/07 01:25:19;;;;;;;3.08;1.02;;;9.50;47.50;;;;;;5073531;28;20032;-86
2022/03/07 01:27:45;;;;;;;0.82;0.80;;;9.60;47.60;;;;;;5090032;28;20037;-86
2022/03/07 01:30:11;;;;;;;3.17;1.10;;;9.60;47.60;;;;;;5077597;28;20036;-87
2022/03/07 01:32:37;;;;;;;1.05;0.90;;;9.50;47.60;;;;;;5068977;28;20032;-86
2022/03/07 01:35:06;;;;;;;0.80;0.80;;;9.60;47.50;;;;;;5086864;28;20036;-85
2022/03/07 01:37:33;;;;;;;0.88;0.82;;;9.50;47.50;;;;;;5081717;27;20119;-84
2022/03/07 01:39:59;;;;;;;1.13;0.93;;;9.50;47.60;;;;;;5091383;28;20111;-87
2022/03/07 01:42:26;;;;;;;2.35;1.13;;;9.60;47.60;;;;;;5057622;28;20086;-88
2022/03/07 01:44:53;;;;;;;2.50;0.82;;;9.50;47.40;;;;;;5073982;28;20466;-87
2022/03/07 01:47:19;;;;;;;1.20;1.00;;;9.60;47.60;;;;;;5062847;28;20028;-88
2022/03/07 01:49:45;;;;;;;1.08;0.60;;;9.50;47.50;;;;;;5107417;27;20517;-88
2022/03/07 01:52:13;;;;;;;0.98;0.68;;;9.60;47.50;;;;;;5091935;27;20778;-85
2022/03/07 01:54:41;;;;;;;1.00;0.70;;;9.60;47.50;;;;;;5074306;28;20148;-87
2022/03/07 01:57:08;;;;;;;1.23;0.80;;;9.50;47.40;;;;;;5058529;28;20109;-87
2022/03/07 01:59:37;;;;;;;0.73;0.70;;;9.50;47.40;;;;;;5062785;28;20037;-86
2022/03/07 02:02:03;;;;;;;0.95;0.70;;;9.50;47.40;;;;;;5064014;28;20060;-85
2022/03/07 02:04:30;;;;;;;0.85;0.70;;;9.50;48.00;;;;;;5074370;28;20036;-85
2022/03/07 02:06:57;;;;;;;1.88;0.98;;;9.50;47.40;;;;;;5071598;28;20352;-87
2022/03/07 02:09:24;;;;;;;1.50;0.73;;;9.50;47.30;;;;;;5088915;27;20024;-87
2022/03/07 02:11:50;;;;;;;1.88;0.80;;;9.50;47.30;;;;;;5087918;28;20053;-87
2022/03/07 02:14:20;;;;;;;1.27;0.82;;;9.50;47.30;;;;;;5073197;28;20028;-86
2022/03/07 02:16:50;;;;;;;2.22;1.00;;;9.50;47.30;;;;;;5046550;28;20043;-86
2022/03/07 02:19:18;;;;;;;0.60;0.52;;;9.50;47.40;;;;;;5057355;28;20042;-86
2022/03/07 02:21:50;;;;;;;1.80;0.80;;;9.50;47.50;;;;;;5055639;27;20093;-85
2022/03/07 02:24:25;;;;;;;0.68;0.65;;;9.50;47.50;;;;;;5041528;27;20039;-83
2022/03/07 02:27:04;;;;;;;0.75;0.43;;;9.50;47.50;;;;;;5070440;28;20110;-82
2022/03/07 02:29:31;;;;;;;1.42;0.80;;;9.50;47.50;;;;;;5070982;28;20522;-83
2022/03/07 02:32:03;;;;;;;1.67;0.75;;;9.50;47.50;;;;;;5085645;28;20399;-82
2022/03/07 02:34:32;;;;;;;0.80;0.80;;;9.50;47.60;;;;;;5106074;27;20519;-81
2022/03/07 02:36:59;;;;;;;1.10;0.60;;;9.50;47.60;;;;;;5089166;28;20040;-83
2022/03/07 02:39:27;;;;;;;1.77;0.95;;;9.50;47.60;;;;;;5079870;27;20032;-83
2022/03/07 02:41:55;;;;;;;1.80;0.73;;;9.50;47.60;;;;;;5090315;28;20904;-82
2022/03/07 02:44:23;;;;;;;1.17;0.70;;;9.50;47.60;;;;;;5080992;28;20028;-82
2022/03/07 02:46:49;;;;;;;1.60;0.85;;;9.50;47.60;;;;;;5071642;28;20105;-82
2022/03/07 02:49:15;;;;;;;2.67;0.98;;;9.50;47.70;;;;;;5101969;27;20045;-81
2022/03/07 02:51:41;;;;;;;2.58;0.82;;;9.50;47.70;;;;;;5071843;28;20064;-83
2022/03/07 02:54:07;;;;;;;1.23;0.70;;;9.50;47.70;;;;;;5103114;27;20139;-82
2022/03/07 02:56:33;;;;;;;1.83;0.70;;;9.50;47.70;;;;;;5070048;28;20042;-81
2022/03/07 02:59:00;;;;;;;1.65;0.60;;;9.50;47.70;;;;;;5071607;28;20033;-84
2022/03/07 03:01:26;;;;;;;1.85;0.70;;;9.50;47.70;;;;;;5069921;28;20048;-84
2022/03/07 03:03:52;;;;;;;0.93;0.80;;;9.50;47.70;;;;;;5086020;28;20064;-83
2022/03/07 03:06:18;;;;;;;1.77;0.73;;;9.50;47.70;;;;;;5070401;28;20048;-83
2022/03/07 03:08:44;;;;;;;1.10;0.70;;;9.50;47.70;;;;;;5101813;28;20732;-84
2022/03/07 03:11:10;;;;;;;1.42;0.63;;;9.50;47.70;;;;;;5085035;28;20454;-84
2022/03/07 03:13:35;;;;;;;0.55;0.55;;;9.50;47.70;;;;;;5070779;28;20106;-84
2022/03/07 03:16:02;;;;;;;0.90;0.70;;;9.50;47.80;;;;;;5056125;28;20032;-84
2022/03/07 03:18:28;;;;;;;0.82;0.60;;;9.50;47.80;;;;;;5073246;28;20032;-84
2022/03/07 03:20:54;;;;;;;1.52;0.70;;;9.50;47.70;;;;;;5073551;28;20726;-83
2022/03/07 03:23:22;;;;;;;0.73;0.73;;;9.50;47.80;;;;;;5063336;28;20064;-83
2022/03/07 03:25:48;;;;;;;2.15;0.65;;;9.50;47.80;;;;;;5088066;28;20580;-84
2022/03/07 03:28:14;;;;;;;2.55;0.90;;;9.50;47.90;;;;;;5073043;28;20068;-83
2022/03/07 03:30:41;;;;;;;1.10;0.80;;;9.50;47.90;;;;;;5073147;28;20036;-84
2022/03/07 03:33:07;;;;;;;1.23;0.70;;;9.50;47.90;;;;;;5075438;28;20123;-85
2022/03/07 03:35:36;;;;;;;1.63;0.70;;;9.50;47.90;;;;;;5074243;28;20147;-82
2022/03/07 03:38:08;;;;;;;1.25;0.75;;;9.50;47.90;;;;;;5090485;28;20468;-82
2022/03/07 03:40:34;;;;;;;3.05;0.75;;;9.50;47.90;;;;;;5097249;28;20317;-82
2022/03/07 03:43:00;;;;;;;1.77;0.90;;;9.50;47.90;;;;;;5111567;27;20043;-83
2022/03/07 03:45:26;;;;;;;1.35;0.82;;;9.50;47.90;;;;;;5082443;28;20573;-81
2022/03/07 03:47:52;;;;;;;1.65;0.75;;;9.50;47.90;;;;;;5060438;28;20123;-84
2022/03/07 03:50:18;;;;;;;1.75;1.10;;;9.50;47.90;;;;;;5090999;28;20119;-84
2022/03/07 03:52:44;;;;;;;1.05;0.75;;;9.50;47.90;;;;;;5073792;28;20036;-83
2022/03/07 03:55:12;;;;;;;1.00;0.70;;;9.50;47.90;;;;;;5056457;28;20032;-83
2022/03/07 03:57:39;;;;;;;2.35;0.68;;;9.50;47.90;;;;;;5080217;28;20494;-82
2022/03/07 04:00:11;;;;;;;1.65;0.63;;;9.50;47.90;;;;;;5075658;28;20060;-82
2022/03/07 04:02:44;;;;;;;2.08;1.05;;;9.50;48.10;;;;;;5073049;28;20166;-84
2022/03/07 04:05:12;;;;;;;3.35;0.75;;;9.50;48.10;;;;;;5074289;27;20102;-83
2022/03/07 04:07:39;;;;;;;1.00;0.75;;;9.50;48.10;;;;;;5056546;28;20494;-83
2022/03/07 04:10:06;;;;;;;1.05;0.90;;;9.50;48.20;;;;;;5055579;28;20041;-82
2022/03/07 04:12:32;;;;;;;1.33;0.80;;;9.50;48.20;;;;;;5072955;28;20037;-83
2022/03/07 04:14:58;;;;;;;1.25;0.70;;;9.50;48.30;;;;;;5074703;28;20044;-83
2022/03/07 04:17:25;;;;;;;2.15;0.70;;;9.50;48.30;;;;;;5071727;28;20044;-83
2022/03/07 04:19:51;;;;;;;0.85;0.75;;;9.50;48.30;;;;;;5088612;28;20044;-85
2022/03/07 04:22:17;;;;;;;1.75;0.88;;;9.50;48.40;;;;;;5070473;28;20040;-83
2022/03/07 04:24:42;;;;;;;1.30;0.70;;;9.60;48.40;;;;;;5106250;27;20090;-84
2022/03/07 04:27:09;;;;;;;2.03;1.15;;;9.50;48.40;;;;;;5072882;28;20039;-83
2022/03/07 04:29:35;;;;;;;3.45;0.95;;;9.50;48.40;;;;;;5071629;28;21767;-83
2022/03/07 04:32:01;;;;;;;3.47;0.93;;;9.50;48.40;;;;;;5072821;28;20059;-82
2022/03/07 04:34:27;;;;;;;2.83;0.65;;;9.50;48.40;;;;;;5075799;28;20117;-82
2022/03/07 04:36:53;;;;;;;1.75;0.60;;;9.50;48.50;;;;;;5090683;27;20036;-82
2022/03/07 04:39:19;;;;;;;2.95;0.90;;;9.50;48.50;;;;;;5075623;28;20028;-83
2022/03/07 04:41:45;;;;;;;1.23;0.85;;;9.50;48.40;;;;;;5075154;28;20991;-81
2022/03/07 04:44:12;;;;;;;2.63;1.20;;;9.50;48.40;;;;;;5076114;28;20032;-83
2022/03/07 04:46:38;;;;;;;2.55;0.80;;;9.50;48.40;;;;;;5076824;28;20028;-83
2022/03/07 04:49:05;;;;;;;1.20;0.90;;;9.50;48.40;;;;;;5078077;28;20511;-84
2022/03/07 04:51:31;;;;;;;2.50;0.90;;;9.60;48.40;;;;;;5073247;27;20031;-82
2022/03/07 04:53:57;;;;;;;2.47;1.10;;;9.60;48.40;;;;;;5076926;28;20044;-82
2022/03/07 04:56:23;;;;;;;2.00;0.80;;;9.60;48.40;;;;;;5107712;27;20028;-82
2022/03/07 04:58:49;;;;;;;3.55;1.00;;;9.60;48.40;;;;;;5074602;27;20028;-82
2022/03/07 05:01:15;;;;;;;1.00;0.70;;;9.60;48.50;;;;;;5072260;27;20036;-81
2022/03/07 05:03:41;;;;;;;3.05;1.02;;;9.60;48.40;;;;;;5072082;28;20055;-81
2022/03/07 05:06:08;;;;;;;1.52;0.70;;;9.60;48.40;;;;;;5074215;28;20051;-82
2022/03/07 05:08:37;;;;;;;1.20;0.93;;;9.60;48.40;;;;;;5074272;28;20128;-81
2022/03/07 05:11:04;;;;;;;1.88;0.90;;;9.60;48.40;;;;;;5073838;27;20028;-81
2022/03/07 05:13:31;;;;;;;1.55;0.77;;;9.60;48.50;;;;;;5100854;27;20115;-82
2022/03/07 05:15:57;;;;;;;2.42;1.30;;;9.60;48.40;;;;;;5074869;27;20498;-82
2022/03/07 05:18:22;;;;;;;3.47;0.85;;;9.60;48.40;;;;;;5053808;27;20037;-84
2022/03/07 05:20:48;;;;;;;3.13;0.95;;;9.60;48.40;;;;;;5106054;27;20055;-82
2022/03/07 05:23:14;;;;;;;0.98;0.80;;;9.60;48.40;;;;;;5058903;28;20048;-83
2022/03/07 05:25:40;;;;;;;2.30;0.90;;;9.60;48.40;;;;;;5076772;27;20056;-82
2022/03/07 05:28:07;;;;;;;1.95;0.90;;;9.60;48.30;;;;;;5075468;28;20037;-82
2022/03/07 05:30:33;;;;;;;2.22;0.88;;;9.60;48.30;;;;;;5073049;27;20040;-83
2022/03/07 05:32:58;;;;;;;3.42;1.02;;;9.60;48.30;;;;;;5089241;28;20024;-84
2022/03/07 05:35:25;;;;;;;5.90;0.80;;;9.60;48.90;;;;;;5074327;28;20379;-85
2022/03/07 05:37:51;;;;;;;1.25;0.88;;;9.60;48.30;;;;;;5059363;28;20033;-83
2022/03/07 05:40:17;;;;;;;1.83;0.88;;;9.60;48.30;;;;;;5071113;28;20035;-91
2022/03/07 05:42:44;;;;;;;1.23;0.77;;;9.60;48.30;;;;;;5073578;28;20041;-87
2022/03/07 05:45:12;;;;;;;2.75;0.90;;;9.60;48.20;;;;;;5068570;28;20439;-85
2022/03/07 05:47:38;;;;;;;3.95;1.02;;;9.70;48.30;;;;;;5059864;28;20534;-85
2022/03/07 05:50:05;;;;;;;2.92;1.10;;;9.70;48.30;;;;;;5047994;28;20132;-92
2022/03/07 05:52:31;;;;;;;4.70;1.10;;;9.70;48.30;;;;;;5071503;28;20037;-86
2022/03/07 05:54:57;;;;;;;2.05;1.02;;;9.70;48.20;;;;;;5056905;28;20059;-86
2022/03/07 05:57:23;;;;;;;1.48;0.95;;;9.70;48.20;;;;;;5065722;28;20040;-83
2022/03/07 05:59:49;;;;;;;2.50;1.00;;;9.70;48.30;;;;;;5057034;28;20660;-84
2022/03/07 06:02:15;;;;;;;3.38;0.80;;;9.70;48.30;;;;;;5071117;27;20036;-83
2022/03/07 06:04:42;;;;;;;0.95;0.80;;;9.70;48.20;;;;;;5070526;28;20097;-85
2022/03/07 06:07:08;;;;;;;1.80;1.00;;;9.70;48.20;;;;;;5055347;28;20039;-90
2022/03/07 06:09:34;;;;;;;1.92;0.80;;;9.70;48.20;;;;;;5085555;27;20036;-82
2022/03/07 06:12:00;;;;;;;1.77;0.90;;;9.70;48.20;;;;;;5075720;28;20047;-88
2022/03/07 06:14:26;;;;;;;1.40;0.80;;;9.70;48.20;;;;;;5048409;28;20040;-83
2022/03/07 06:16:52;;;;;;;5.43;1.30;;;9.70;48.70;;;;;;5072809;28;20033;-82
2022/03/07 06:19:18;;;;;;;2.08;0.90;;;9.70;48.10;;;;;;5074721;28;20036;-84
2022/03/07 06:21:44;;;;;;;1.73;1.10;;;9.70;48.10;;;;;;5071204;28;20036;-83
2022/03/07 06:24:10;;;;;;;4.60;1.50;;;9.70;48.10;;;;;;5056073;28;20032;-81
2022/03/07 06:26:36;;;;;;;4.85;1.67;;;9.70;49.70;;;;;;5071257;27;20131;-79
2022/03/07 06:29:03;;;;;;;4.18;1.80;;;9.60;49.00;;;;;;5072226;28;20044;-79
2022/03/07 06:31:29;;;;;;;4.35;1.60;;;9.60;48.80;;;;;;5070041;27;20043;-82
2022/03/07 06:33:55;;;;;;;2.83;1.52;;;9.40;48.80;;;;;;5071549;28;20503;-80
2022/03/07 06:36:21;;;;;;;6.15;2.13;;;9.40;48.80;;;;;;5071800;28;20452;-80
2022/03/07 06:38:47;;;;;;;5.18;1.50;;;9.30;48.80;;;;;;5071509;28;20040;-81
2022/03/07 06:41:13;;;;;;;2.55;1.40;;;9.20;48.70;;;;;;5070418;28;20036;-81
2022/03/07 06:43:39;;;;;;;3.58;1.67;;;9.20;48.80;;;;;;5071068;28;20067;-79
2022/03/07 06:46:05;;;;;;;3.92;1.65;;;9.10;48.90;;;;;;5072680;28;20063;-84
2022/03/07 06:48:33;;;;;;;3.70;1.75;;;9.10;49.20;;;;;;5073429;28;20498;-81
2022/03/07 06:50:59;;;;;;;8.35;2.00;;;9.00;49.20;;;;;;5071599;28;20697;-81
2022/03/07 06:53:25;;;;;;;5.95;1.65;;;9.00;49.20;;;;;;5072575;27;20039;-78
2022/03/07 06:55:51;;;;;;;5.40;2.10;;;9.00;49.20;;;;;;5059195;28;20059;-81
2022/03/07 06:58:18;;;;;;;6.53;2.20;;;8.90;49.10;;;;;;5047639;28;20589;-81
2022/03/07 07:00:45;;;;;;;3.45;1.60;;;9.00;49.10;;;;;;5045074;28;20045;-80
2022/03/07 07:03:12;;;;;;;3.70;2.00;;;8.90;49.20;;;;;;5056344;28;20048;-84
2022/03/07 07:05:38;;;;;;;4.30;1.73;;;8.90;49.40;;;;;;5031451;28;20549;-80
2022/03/07 07:08:04;;;;;;;5.30;1.98;;;9.00;51.00;;;;;;5044101;28;20033;-81
2022/03/07 07:10:30;;;;;;;3.80;1.75;;;9.10;51.50;;;;;;5052579;28;20112;-84
2022/03/07 07:12:56;;;;;;;4.32;1.80;;;9.20;52.10;;;;;;5058804;28;20029;-81
2022/03/07 07:15:22;;;;;;;5.15;1.55;;;9.30;52.20;;;;;;5057453;28;20570;-91
2022/03/07 07:17:48;;;;;;;2.97;1.20;;;9.40;53.50;;;;;;5013438;28;20029;-83
2022/03/07 07:20:14;;;;;;;6.60;1.60;;;9.40;53.70;;;;;;5051275;28;20040;-85
2022/03/07 07:22:41;;;;;;;4.53;1.58;;;9.50;54.40;;;;;;5057065;28;20098;-82
2022/03/07 07:25:08;;;;;;;7.40;1.40;;;9.60;54.50;;;;;;5057111;28;20048;-82
2022/03/07 07:27:35;;;;;;;4.68;1.33;;;9.70;54.20;;;;;;5050934;28;20082;-84
2022/03/07 07:30:01;;;;;;;4.93;1.80;;;9.80;54.10;;;;;;5057793;28;20043;-79
2022/03/07 07:32:29;;;;;;;3.28;1.38;;;9.80;53.80;;;;;;5063364;28;20025;-81
2022/03/07 07:34:55;;;;;;;3.25;1.65;;;9.90;53.60;;;;;;5053413;28;20029;-81
2022/03/07 07:37:21;;;;;;;3.17;1.50;;;9.90;53.50;;;;;;5049949;28;20446;-80
2022/03/07 07:39:47;;;;;;;3.95;1.15;;;10.00;53.30;;;;;;5040336;28;20456;-78
2022/03/07 07:42:13;;;;;;;5.57;1.45;;;10.00;53.00;;;;;;5055316;28;20039;-84
2022/03/07 07:44:39;;;;;;;5.03;1.92;;;10.00;52.70;;;;;;5053609;28;20779;-80
2022/03/07 07:47:07;;;;;;;5.35;1.50;;;10.10;52.70;;;;;;5054167;28;20029;-82
2022/03/07 07:49:33;;;;;;;9.20;1.77;;;10.10;52.70;;;;;;5029807;28;21510;-82
2022/03/07 07:51:59;;;;;;;4.25;1.77;;;10.20;52.90;;;;;;5053750;28;20561;-82
2022/03/07 07:54:25;;;;;;;8.85;1.80;;;10.20;53.20;;;;;;5053974;28;20124;-85
2022/03/07 07:56:51;;;;;;;7.45;1.95;;;10.20;53.60;;;;;;5032426;28;20032;-82
2022/03/07 07:59:18;;;;;;;6.45;2.35;;;10.30;53.80;;;;;;5049577;28;20114;-79
2022/03/07 08:01:44;;;;;;;5.55;1.85;;;10.30;53.80;;;;;;5050421;28;20037;-80
2022/03/07 08:04:12;;;;;;;5.28;1.98;;;10.30;53.80;;;;;;5053144;28;20052;-82
2022/03/07 08:06:41;;;;;;;3.60;1.75;;;10.30;54.00;;;;;;5043969;28;20040;-82
2022/03/07 08:09:07;;;;;;;5.63;1.73;;;10.40;54.20;;;;;;5056832;28;20025;-81
2022/03/07 08:11:33;;;;;;;6.35;1.90;;;10.40;54.10;;;;;;5069215;28;20818;-81
2022/03/07 08:13:59;;;;;;;6.38;2.13;;;10.50;54.00;;;;;;5054734;28;20517;-81
2022/03/07 08:16:25;;;;;;;5.50;2.20;;;10.50;53.90;;;;;;5055566;28;20033;-80
2022/03/07 08:18:51;;;;;;;6.32;2.15;;;10.50;53.80;;;;;;5055833;28;20037;-80
2022/03/07 08:21:20;;;;;;;2.90;1.70;;;10.50;53.70;;;;;;5048561;28;20419;-78
2022/03/07 08:23:46;;;;;;;3.80;1.63;;;10.60;53.70;;;;;;5048576;28;20045;-79
2022/03/07 08:26:12;;;;;;;6.13;2.30;;;10.60;53.30;;;;;;5054452;28;20391;-79
2022/03/07 08:28:38;;;;;;;4.57;1.88;;;10.60;52.70;;;;;;5053991;28;20075;-79
2022/03/07 08:31:03;;;;;;;4.05;1.70;;;10.70;52.10;;;;;;5047434;28;20118;-79
2022/03/07 08:33:31;;;;;;;3.75;1.50;;;10.70;51.40;;;;;;5052670;28;20499;-78
2022/03/07 08:35:58;;;;;;;4.22;1.80;;;10.70;50.90;;;;;;5054007;28;20029;-78
2022/03/07 08:38:24;;;;;;;8.18;2.03;;;10.70;50.50;;;;;;5037862;28;20041;-79
2022/03/07 08:40:51;;;;;;;3.58;1.75;;;10.70;50.10;;;;;;5055112;28;20511;-78
2022/03/07 08:43:17;;;;;;;4.53;2.38;;;10.70;49.60;;;;;;5043375;28;20041;-79
2022/03/07 08:45:42;;;;;;;4.35;1.85;;;10.80;49.40;;;;;;5050207;28;20099;-79
2022/03/07 08:48:08;;;;;;;5.03;1.88;;;10.80;49.20;;;;;;5049377;28;20037;-78
2022/03/07 08:50:34;;;;;;;5.72;1.73;;;10.80;49.00;;;;;;5049058;28;20048;-78
2022/03/07 08:53:00;;;;;;;5.65;2.15;;;10.80;48.70;;;;;;5053114;28;20459;-77
2022/03/07 08:55:26;;;;;;;5.50;1.90;;;10.80;48.50;;;;;;5054073;28;20044;-77
2022/03/07 08:57:52;;;;;;;5.22;2.50;;;10.80;48.40;;;;;;5036479;28;20418;-78
2022/03/07 09:00:19;;;;;;;3.80;2.00;;;10.90;48.30;;;;;;5046408;28;20091;-78
2022/03/07 09:02:45;;;;;;;3.35;1.73;;;10.90;48.10;;;;;;5053979;28;20538;-77
2022/03/07 09:05:11;;;;;;;5.82;1.60;;;10.90;48.00;;;;;;5055099;28;20044;-78
2022/03/07 09:07:37;;;;;;;2.95;1.70;;;10.90;47.80;;;;;;5054381;28;20106;-78
2022/03/07 09:10:03;;;;;;;3.20;1.75;;;10.90;47.70;;;;;;5052785;28;20128;-78
2022/03/07 09:12:29;;;;;;;2.95;1.50;;;11.00;47.60;;;;;;5053832;28;20442;-78
2022/03/07 09:14:57;;;;;;;3.92;1.70;;;10.90;47.50;;;;;;5053536;28;20124;-78
2022/03/07 09:17:24;;;;;;;3.45;1.90;;;10.90;47.40;;;;;;5053388;28;20037;-78
2022/03/07 09:19:50;;;;;;;3.50;1.65;;;11.00;47.40;;;;;;5049953;28;20044;-76
2022/03/07 09:22:16;;;;;;;4.40;1.73;;;11.00;47.30;;;;;;5049368;28;20180;-78
2022/03/07 09:24:42;;;;;;;3.42;1.63;;;11.00;47.20;;;;;;5053227;28;20033;-77
2022/03/07 09:27:08;;;;;;;5.13;2.13;;;10.90;47.20;;;;;;5055195;28;20025;-82
2022/03/07 09:29:34;;;;;;;7.90;2.25;;;10.90;47.10;;;;;;5055505;28;20048;-81
2022/03/07 09:32:00;;;;;;;3.33;1.80;;;10.90;47.70;;;;;;5055557;28;20033;-81
2022/03/07 09:34:26;;;;;;;1.83;1.67;;;10.90;47.10;;;;;;5059070;28;20061;-81
2022/03/07 09:36:52;;;;;;;3.25;1.48;;;10.90;47.00;;;;;;5049586;28;20049;-80
2022/03/07 09:39:18;;;;;;;5.72;2.05;;;10.90;47.00;;;;;;5055115;28;20033;-80
2022/03/07 09:41:44;;;;;;;3.65;1.70;;;10.90;47.00;;;;;;5055859;28;20094;-80
2022/03/07 09:44:10;;;;;;;4.93;1.85;;;10.90;47.00;;;;;;5058809;28;20033;-81
2022/03/07 09:46:36;;;;;;;5.45;2.13;;;10.90;46.90;;;;;;5061457;28;20415;-83
2022/03/07 09:49:03;;;;;;;5.47;2.10;;;10.90;46.90;;;;;;5062249;28;20028;-81
2022/03/07 09:51:29;;;;;;;5.25;1.77;;;10.80;46.90;;;;;;5060161;28;20086;-81
2022/03/07 09:53:55;;;;;;;3.33;1.88;;;10.90;46.90;;;;;;5053565;28;20488;-84
2022/03/07 09:56:21;;;;;;;4.07;2.20;;;10.80;46.80;;;;;;5055976;28;20037;-85
2022/03/07 09:58:47;;;;;;;4.07;2.22;;;10.80;46.80;;;;;;5037727;28;20132;-86
2022/03/07 10:01:21;;;;;;;3.97;2.10;;;10.80;46.80;;;;;;5051925;28;20476;-83
2022/03/07 10:03:48;;;;;;;6.63;2.70;;;10.80;46.70;;;;;;5053140;28;20511;-81
2022/03/07 10:06:17;;;;;;;5.97;2.13;;;10.90;47.00;;;;;;5061165;28;20052;-84
2022/03/07 10:08:54;;;;;;;4.05;1.95;;;10.80;46.60;;;;;;5098496;28;20506;-82
2022/03/07 10:11:21;;;;;;;4.05;2.00;;;10.90;46.70;;;;;;5096277;28;20043;-83
2022/03/07 10:13:59;;;;;;;3.25;1.83;;;10.80;46.50;;;;;;5082885;28;20042;-84
2022/03/07 10:16:40;;;;;;;5.20;2.17;;;10.80;46.50;;;;;;5094722;28;20108;-81
2022/03/07 10:19:13;;;;;;;4.00;1.98;;;10.80;46.50;;;;;;5082787;27;20040;-83
2022/03/07 10:21:50;;;;;;;4.85;2.00;;;10.80;46.40;;;;;;5091001;28;20597;-84
2022/03/07 10:24:18;;;;;;;3.30;1.98;;;10.80;46.40;;;;;;5070014;28;20029;-83
2022/03/07 10:26:44;;;;;;;7.03;2.00;;;10.80;46.40;;;;;;5078095;28;20051;-81
2022/03/07 10:29:10;;;;;;;17.80;3.22;;;10.80;46.40;;;;;;5084217;28;20115;-81
2022/03/07 10:31:44;;;;;;;7.05;1.88;;;10.80;46.70;;;;;;5077571;28;20083;-80
2022/03/07 10:34:11;;;;;;;5.28;1.80;;;10.90;47.30;;;;;;5085398;28;20085;-82
2022/03/07 10:36:42;;;;;;;6.82;2.00;;;10.90;49.20;;;;;;5073367;28;20119;-81
2022/03/07 10:39:15;;;;;;;5.00;1.80;;;11.00;50.60;;;;;;5093609;28;20024;-80
2022/03/07 10:41:46;;;;;;;5.97;1.95;;;11.00;51.90;;;;;;5091330;28;20558;-83
2022/03/07 10:44:25;;;;;;;10.77;1.98;;;11.10;51.70;;;;;;5092831;28;20072;-80
2022/03/07 10:46:51;;;;;;;3.33;1.50;;;11.10;52.00;;;;;;5094055;28;20076;-82
2022/03/07 10:49:17;;;;;;;5.65;1.67;;;11.10;52.10;;;;;;5092874;28;20118;-79
2022/03/07 10:51:54;;;;;;;2.88;1.33;;;11.10;52.20;;;;;;5079994;28;20031;-80
2022/03/07 10:54:21;;;;;;;4.32;1.98;;;11.10;52.20;;;;;;5094902;28;20047;-80
2022/03/07 10:56:55;;;;;;;6.72;2.65;;;11.20;52.40;;;;;;5091694;28;20036;-79
2022/03/07 10:59:32;;;;;;;4.85;2.30;;;11.20;52.60;;;;;;5093991;28;20028;-79
2022/03/07 11:02:09;;;;;;;6.20;1.88;;;11.20;52.80;;;;;;5092142;28;20044;-80
2022/03/07 11:04:37;;;;;;;5.60;2.00;;;11.20;53.00;;;;;;5091255;28;20035;-80
2022/03/07 11:07:05;;;;;;;5.90;2.45;;;11.20;53.20;;;;;;5092650;28;20035;-80
2022/03/07 11:09:31;;;;;;;7.93;1.65;;;11.20;53.40;;;;;;5078125;28;20056;-80
2022/03/07 11:11:57;;;;;;;3.70;1.70;;;11.20;53.50;;;;;;5073364;28;20058;-81
2022/03/07 11:14:27;;;;;;;4.50;2.10;;;11.30;53.70;;;;;;5094251;28;20034;-80
2022/03/07 11:16:56;;;;;;;4.72;1.77;;;11.30;53.70;;;;;;5093601;28;20502;-80
2022/03/07 11:19:24;;;;;;;3.72;1.95;;;11.30;53.90;;;;;;5093037;28;20042;-81
2022/03/07 11:21:52;;;;;;;4.35;2.20;;;11.30;53.90;;;;;;5092455;28;20036;-80
2022/03/07 11:24:24;;;;;;;5.53;2.08;;;11.30;53.90;;;;;;5094517;28;20119;-82
2022/03/07 11:26:52;;;;;;;5.15;2.17;;;11.30;53.90;;;;;;5073691;28;20069;-82
2022/03/07 11:29:18;;;;;;;11.30;2.17;;;11.30;54.30;;;;;;5073100;28;20546;-82
2022/03/07 11:31:46;;;;;;;7.20;2.40;;;11.30;53.90;;;;;;5075083;28;20785;-84
2022/03/07 11:34:12;;;;;;;5.38;3.10;;;11.40;53.20;;;;;;5087007;28;20037;-77
2022/03/07 11:36:45;;;;;;;6.15;2.85;;;11.40;52.60;;;;;;5054857;28;20463;-77
2022/03/07 11:39:12;;;;;;;7.90;2.90;;;11.40;51.80;;;;;;5075446;28;20058;-78
2022/03/07 11:41:40;;;;;;;6.43;2.95;;;11.40;51.70;;;;;;5057770;28;20571;-78
2022/03/07 11:44:14;;;;;;;5.60;2.92;;;11.40;53.40;;;;;;5076585;28;20052;-81
2022/03/07 11:46:44;;;;;;;7.95;2.97;;;11.40;55.50;;;;;;5084094;28;20031;-77
2022/03/07 11:49:24;;;;;;;5.22;2.83;;;11.40;56.60;;;;;;5089444;27;20122;-77
2022/03/07 11:51:57;;;;;;;8.85;3.38;;;11.40;56.70;;;;;;5078037;28;20407;-76
2022/03/07 11:54:23;;;;;;;6.97;2.63;;;11.50;56.90;;;;;;5094770;28;20028;-80
2022/03/07 11:56:49;;;;;;;5.38;2.58;;;11.50;56.60;;;;;;5097367;28;20020;-78
2022/03/07 11:59:16;;;;;;;5.15;2.75;;;11.50;56.50;;;;;;5094690;28;20039;-78
2022/03/07 12:01:54;;;;;;;5.40;3.00;;;11.50;56.00;;;;;;5097733;28;20032;-78
2022/03/07 12:04:20;;;;;;;4.20;2.50;;;11.50;55.90;;;;;;5095807;28;20550;-76
2022/03/07 12:06:48;;;;;;;5.32;2.40;;;11.50;55.70;;;;;;5093930;28;20047;-77
2022/03/07 12:09:32;;;;;;;6.15;3.15;;;11.50;55.60;;;;;;5094778;28;20047;-78
2022/03/07 12:12:14;;;;;;;4.63;2.70;;;11.50;55.50;;;;;;5095094;28;20047;-77
2022/03/07 12:14:42;;;;;;;4.05;2.33;;;11.50;55.30;;;;;;5092367;28;20039;-78
2022/03/07 12:17:13;;;;;;;4.97;2.72;;;11.60;55.20;;;;;;5095878;28;20028;-79
2022/03/07 12:19:39;;;;;;;4.25;2.28;;;11.60;55.00;;;;;;5077010;28;20036;-78
2022/03/07 12:22:16;;;;;;;6.15;2.45;;;11.60;55.00;;;;;;5092850;28;20119;-77
2022/03/07 12:24:43;;;;;;;5.35;2.70;;;11.50;54.80;;;;;;5094116;28;20047;-78
2022/03/07 12:27:09;;;;;;;4.88;2.35;;;11.60;54.40;;;;;;5094456;28;20059;-79
2022/03/07 12:29:40;;;;;;;6.10;3.08;;;11.60;53.50;;;;;;5094298;28;20415;-80
2022/03/07 12:32:07;;;;;;;4.43;2.30;;;11.60;52.70;;;;;;5094850;28;20062;-79
2022/03/07 12:34:35;;;;;;;5.30;2.78;;;11.60;52.00;;;;;;5095376;28;20039;-80
2022/03/07 12:37:08;;;;;;;5.97;2.42;;;11.50;51.40;;;;;;5095512;28;20172;-79
2022/03/07 12:39:51;;;;;;;4.25;2.70;;;11.50;50.80;;;;;;5095089;28;20032;-78
2022/03/07 12:42:31;;;;;;;5.55;2.42;;;11.50;50.40;;;;;;5076238;28;20032;-78
2022/03/07 12:45:00;;;;;;;4.72;2.40;;;11.50;49.90;;;;;;5056812;28;20068;-79
2022/03/07 12:47:32;;;;;;;4.57;2.58;;;11.40;49.60;;;;;;5074243;28;20035;-79
2022/03/07 12:49:58;;;;;;;5.85;2.70;;;11.40;49.40;;;;;;5074063;28;20550;-81
2022/03/07 12:52:30;;;;;;;3.60;2.33;;;11.40;49.20;;;;;;5073064;28;20146;-81
2022/03/07 12:54:57;;;;;;;6.53;2.30;;;11.40;49.00;;;;;;5073390;28;20067;-80